Sweeney, South Dakota
Current Conditions -  °F | °C
As of 7:53 PM on Tuesday 21 Oct 2014 (Local Time) from KPIR Reporting Station
Clear Clear  
Wind Chill: 71°   Ceiling: Unl
Heat Index: 71°   Visibility: 10mi
Dew Point: 36°   Wind: 16mph
Humidity: 28%   Direction: 130°SE
Pressure: 29.76"   Gusts: NA
Location:  43.909°N, 100.128°W
Report Text: KPIR 220053Z AUTO 13014KT 10SM CLR 22/02 A2976 RMK AO2 SLP072 T02170022
Loading
Personal Weather Stations






























Interactive Weather Map
Tropical Storm Tracking
New forecast layout! Learn more

10-Day Weather Forecast

Advertisements
Track Severe Weather on mobile